Time;durP1;ratioP1;P1;durP2;ratioP2;P2;SDS_P1;SDS_P2;PMS_P1;PMS_P2;Temp;Humidity;BMP_temperature;BMP_pressure;BME280_temperature;BME280_humidity;BME280_pressure;Samples;Min_cycle;Max_cycle;Signal;HPM_P1;HPM_P2
2022/08/19 00:01:33;;;;;;;14.43;13.33;;;;;;;20.82;100.00;99850.97;4890661;29;20199;-77
2022/08/19 00:04:00;;;;;;;14.57;13.47;;;;;;;20.82;100.00;99864.09;4905805;29;20220;-77
2022/08/19 00:06:28;;;;;;;13.27;12.37;;;;;;;20.80;100.00;99858.94;4891741;29;20243;-76
2022/08/19 00:08:53;;;;;;;14.07;13.07;;;;;;;;;;4894241;29;20245;-77
2022/08/19 00:11:19;;;;;;;13.87;12.87;;;;;;;20.81;100.00;99857.16;4891673;29;21052;-77
2022/08/19 00:13:46;;;;;;;14.10;12.90;;;;;;;20.79;100.00;99862.50;4890266;29;20193;-78
2022/08/19 00:16:11;;;;;;;12.97;12.03;;;;;;;20.80;100.00;99858.09;4890780;29;20224;-76
2022/08/19 00:18:36;;;;;;;13.60;12.63;;;;;;;20.80;100.00;99856.31;4891352;29;20649;-76
2022/08/19 00:21:03;;;;;;;14.60;13.50;;;;;;;20.83;100.00;99861.41;4892295;29;20267;-78
2022/08/19 00:23:29;;;;;;;15.17;14.07;;;;;;;20.84;100.00;99843.84;4904805;29;20221;-78
2022/08/19 00:25:55;;;;;;;16.03;14.83;;;;;;;20.86;100.00;99844.59;4892222;29;20216;-78
2022/08/19 00:28:20;;;;;;;14.93;13.90;;;;;;;20.88;100.00;99849.75;4891070;29;20613;-77
2022/08/19 00:30:46;;;;;;;16.37;15.17;;;;;;;20.89;100.00;99859.34;4890941;29;20201;-77
2022/08/19 00:33:13;;;;;;;15.90;14.70;;;;;;;20.90;100.00;99863.66;4892171;29;20218;-77
2022/08/19 00:35:38;;;;;;;18.43;17.03;;;;;;;20.94;100.00;99866.03;4891382;29;20224;-77
2022/08/19 00:38:06;;;;;;;16.90;15.70;;;;;;;20.95;100.00;99861.63;4889712;29;20207;-77
2022/08/19 00:40:32;;;;;;;16.60;15.30;;;;;;;20.96;100.00;99858.88;4894558;29;20211;-76
2022/08/19 00:42:57;;;;;;;17.70;16.20;;;;;;;20.97;100.00;99857.94;4891837;29;20352;-76
2022/08/19 00:45:26;;;;;;;16.90;15.70;;;;;;;20.96;100.00;99851.00;4889435;29;20299;-77
2022/08/19 00:47:52;;;;;;;16.50;15.30;;;;;;;20.96;100.00;99845.72;4889027;29;20200;-77
2022/08/19 00:50:20;;;;;;;15.17;14.17;;;;;;;20.96;100.00;99835.22;4912025;29;20191;-76
2022/08/19 00:52:49;;;;;;;15.20;14.10;;;;;;;20.96;100.00;99822.06;4892277;29;20247;-76
2022/08/19 00:55:24;;;;;;;15.63;14.43;;;;;;;20.98;100.00;99820.19;4899557;29;20211;-77
2022/08/19 00:58:03;;;;;;;15.57;14.47;;;;;;;20.99;100.00;99818.41;4894373;29;20540;-77
2022/08/19 01:00:30;;;;;;;15.07;13.97;;;;;;;20.99;100.00;99828.94;4896677;29;20198;-78
2022/08/19 01:02:56;;;;;;;15.20;14.10;;;;;;;20.99;100.00;99849.97;4896409;29;20235;-77
2022/08/19 01:05:27;;;;;;;16.47;15.20;;;;;;;20.98;100.00;99849.13;4897450;29;20208;-77
2022/08/19 01:07:54;;;;;;;16.33;15.03;;;;;;;20.99;100.00;99848.19;4895204;29;20223;-77
2022/08/19 01:10:24;;;;;;;17.07;15.77;;;;;;;21.00;100.00;99854.31;4896125;29;20260;-77
2022/08/19 01:12:52;;;;;;;17.93;16.63;;;;;;;21.01;100.00;99851.56;4909298;29;20220;-77
2022/08/19 01:15:22;;;;;;;18.27;16.97;;;;;;;21.02;100.00;99858.53;4908652;29;20213;-77
2022/08/19 01:17:49;;;;;;;16.40;15.20;;;;;;;21.02;100.00;99849.81;4893051;29;20224;-76
2022/08/19 01:20:19;;;;;;;16.07;14.87;;;;;;;21.04;100.00;99844.44;4897153;29;20211;-78
2022/08/19 01:22:51;;;;;;;15.27;14.17;;;;;;;21.05;100.00;99841.69;4904419;29;20735;-77
2022/08/19 01:25:20;;;;;;;16.03;14.83;;;;;;;21.06;100.00;99838.13;4894484;29;20295;-76
2022/08/19 01:27:48;;;;;;;15.80;14.60;;;;;;;21.07;100.00;99846.91;4895508;29;20185;-77
2022/08/19 01:30:18;;;;;;;15.87;14.77;;;;;;;21.07;100.00;99845.09;4910795;29;20289;-77
2022/08/19 01:32:43;;;;;;;14.83;13.70;;;;;;;21.06;100.00;99837.31;4891545;29;20193;-78
2022/08/19 01:35:10;;;;;;;15.67;14.37;;;;;;;21.05;100.00;99841.69;4895430;29;20233;-77
2022/08/19 01:37:48;;;;;;;16.03;14.93;;;;;;;21.05;100.00;99846.13;4896671;29;20225;-75
2022/08/19 01:40:15;;;;;;;14.70;13.63;;;;;;;21.04;100.00;99858.41;4895771;29;20200;-76
2022/08/19 01:42:40;;;;;;;15.37;14.27;;;;;;;21.02;100.00;99842.75;4892912;29;20217;-77
2022/08/19 01:45:07;;;;;;;14.83;13.73;;;;;;;21.02;100.00;99841.91;4895758;29;20683;-77
2022/08/19 01:47:35;;;;;;;15.13;14.03;;;;;;;21.00;100.00;99831.47;4907924;29;20201;-77
2022/08/19 01:50:00;;;;;;;15.07;13.97;;;;;;;20.99;100.00;99836.84;4894645;29;20324;-78
2022/08/19 01:52:27;;;;;;;15.50;14.33;;;;;;;20.98;100.00;99832.50;4916459;29;20256;-75
2022/08/19 01:54:52;;;;;;;14.07;13.07;;;;;;;20.96;100.00;99832.56;4905871;29;20592;-77
2022/08/19 01:57:18;;;;;;;15.30;14.10;;;;;;;20.96;100.00;99834.38;4913218;29;20195;-79
2022/08/19 01:59:44;;;;;;;15.07;13.90;;;;;;;20.94;100.00;99838.88;4912425;29;20568;-77
2022/08/19 02:02:10;;;;;;;15.60;14.50;;;;;;;20.94;100.00;99844.13;4891976;29;20200;-76
2022/08/19 02:04:37;;;;;;;14.83;13.83;;;;;;;20.93;100.00;99832.78;4895266;29;20209;-78
2022/08/19 02:07:03;;;;;;;15.43;14.33;;;;;;;20.91;100.00;99834.66;4907509;29;20213;-77
2022/08/19 02:09:31;;;;;;;15.67;14.57;;;;;;;20.91;100.00;99833.78;4894628;29;20201;-78
2022/08/19 02:11:56;;;;;;;15.47;14.37;;;;;;;20.90;100.00;99837.34;4892566;29;20193;-74
2022/08/19 02:14:21;;;;;;;15.40;14.30;;;;;;;20.89;100.00;99840.91;4893955;29;20189;-76
2022/08/19 02:16:47;;;;;;;15.20;14.10;;;;;;;20.88;100.00;99850.59;4892735;29;20240;-76
2022/08/19 02:19:12;;;;;;;15.67;14.50;;;;;;;20.86;100.00;99848.09;4907952;29;20221;-76
2022/08/19 02:21:38;;;;;;;15.90;14.60;;;;;;;20.86;100.00;99840.19;4892563;29;20687;-78
2022/08/19 02:24:03;;;;;;;15.53;14.43;;;;;;;20.86;100.00;99844.59;4897536;29;20771;-75
2022/08/19 02:26:29;;;;;;;15.07;13.97;;;;;;;20.86;100.00;99839.31;4893488;29;20705;-76
2022/08/19 02:28:55;;;;;;;16.67;15.40;;;;;;;20.86;100.00;99845.44;4897617;29;20602;-78
2022/08/19 02:31:24;;;;;;;15.30;14.20;;;;;;;20.86;100.00;99844.59;4897673;29;20232;-77
2022/08/19 02:33:50;;;;;;;15.97;14.87;;;;;;;20.86;100.00;99845.44;4897881;29;20209;-76
2022/08/19 02:36:16;;;;;;;16.07;14.97;;;;;;;20.86;100.00;99844.59;4890872;29;20267;-75
2022/08/19 02:38:43;;;;;;;15.63;14.53;;;;;;;20.87;100.00;99835.75;4894481;29;20204;-76
2022/08/19 02:41:18;;;;;;;16.47;15.27;;;;;;;20.87;100.00;99835.75;4907300;29;20201;-78
2022/08/19 02:43:43;;;;;;;16.10;14.90;;;;;;;20.84;100.00;99826.28;4898713;29;20302;-76
2022/08/19 02:46:21;;;;;;;16.97;15.77;;;;;;;20.85;100.00;99835.00;4891312;29;20722;-76
2022/08/19 02:48:49;;;;;;;16.17;14.97;;;;;;;20.84;100.00;99825.41;4889501;29;20248;-77
2022/08/19 02:51:26;;;;;;;16.73;15.43;;;;;;;20.83;100.00;99827.22;4891715;29;20200;-77
2022/08/19 02:53:52;;;;;;;16.30;15.10;;;;;;;20.82;100.00;99828.16;4888826;29;20180;-75
2022/08/19 02:56:18;;;;;;;15.47;14.37;;;;;;;20.83;100.00;99831.63;4891073;29;20760;-75
2022/08/19 02:58:44;;;;;;;16.57;15.40;;;;;;;20.83;100.00;99836.88;4895922;29;20464;-77
2022/08/19 03:01:10;;;;;;;16.13;14.93;;;;;;;20.86;100.00;99839.31;4898356;29;20676;-76
2022/08/19 03:03:37;;;;;;;16.77;15.47;;;;;;;20.86;100.00;99837.56;4892245;29;20224;-76
2022/08/19 03:06:13;;;;;;;16.63;15.43;;;;;;;20.87;100.00;99843.66;4891590;29;20681;-75
2022/08/19 03:08:43;;;;;;;17.73;16.47;;;;;;;20.88;100.00;99853.25;4891496;29;20252;-76
2022/08/19 03:11:14;;;;;;;18.17;16.77;;;;;;;20.88;100.00;99855.88;4897581;29;20211;-76
2022/08/19 03:13:40;;;;;;;19.30;17.80;;;;;;;20.88;100.00;99853.25;4892953;29;20192;-77
2022/08/19 03:16:05;;;;;;;16.90;15.70;;;;;;;20.88;100.00;99860.28;4891619;29;20216;-76
2022/08/19 03:18:31;;;;;;;17.87;16.37;;;;;;;20.88;100.00;99858.50;4900449;29;20204;-77
2022/08/19 03:20:56;;;;;;;17.03;15.77;;;;;;;20.90;100.00;99853.13;4900129;29;20263;-77
2022/08/19 03:23:23;;;;;;;17.30;16.00;;;;;;;20.89;100.00;99856.69;4891864;29;20223;-77
2022/08/19 03:25:50;;;;;;;15.97;14.87;;;;;;;20.89;100.00;99856.69;4889667;29;20209;-77
2022/08/19 03:28:16;;;;;;;16.97;15.77;;;;;;;20.87;100.00;99856.81;4892170;29;20200;-77
2022/08/19 03:30:55;;;;;;;16.67;15.47;;;;;;;20.86;100.00;99847.22;4888991;29;20279;-77
2022/08/19 03:33:21;;;;;;;17.80;16.47;;;;;;;20.85;100.00;99859.53;4907422;29;20599;-77
2022/08/19 03:35:47;;;;;;;18.27;16.87;;;;;;;20.86;100.00;99870.88;4891055;29;20235;-77
2022/08/19 03:38:12;;;;;;;18.53;17.13;;;;;;;20.85;100.00;99864.78;4905079;29;20196;-77
2022/08/19 03:40:38;;;;;;;18.53;17.13;;;;;;;20.84;100.00;99865.72;4892935;29;20199;-77
2022/08/19 03:43:03;;;;;;;17.97;16.57;;;;;;;;;;4892248;29;20290;-78
2022/08/19 03:45:29;;;;;;;17.87;16.57;;;;;;;20.81;100.00;99859.78;4892174;29;20696;-77
2022/08/19 03:47:54;;;;;;;17.23;16.03;;;;;;;20.76;100.00;99857.44;4891627;29;20610;-78
2022/08/19 03:50:20;;;;;;;17.67;16.30;;;;;;;20.74;100.00;99867.16;4910375;29;20212;-77
2022/08/19 03:52:51;;;;;;;17.90;16.53;;;;;;;20.73;100.00;99862.00;4904109;29;20193;-77
2022/08/19 03:55:18;;;;;;;18.03;16.63;;;;;;;20.67;100.00;99861.41;4894098;29;20681;-77
2022/08/19 03:57:45;;;;;;;17.10;15.90;;;;;;;20.65;100.00;99863.28;4903177;29;20195;-77
2022/08/19 04:00:11;;;;;;;17.40;16.00;;;;;;;20.62;100.00;99855.59;4892532;29;20267;-76
2022/08/19 04:02:37;;;;;;;17.40;16.10;;;;;;;20.60;100.00;99853.97;4890314;29;20196;-78
2022/08/19 04:05:02;;;;;;;17.13;15.87;;;;;;;20.56;100.00;99864.69;4892143;29;20316;-76
2022/08/19 04:07:28;;;;;;;18.13;16.83;;;;;;;20.54;100.00;99865.69;4905969;29;20199;-77
2022/08/19 04:09:53;;;;;;;17.73;16.43;;;;;;;20.52;100.00;99865.78;4891272;29;20200;-77
2022/08/19 04:12:20;;;;;;;17.83;16.43;;;;;;;20.49;100.00;99870.38;4893384;29;20680;-76
2022/08/19 04:14:45;;;;;;;18.27;16.87;;;;;;;20.47;100.00;99865.19;4889402;29;20205;-77
2022/08/19 04:17:13;;;;;;;19.53;18.03;;;;;;;20.44;100.00;99873.25;4891120;29;20621;-78
2022/08/19 04:19:39;;;;;;;18.23;16.93;;;;;;;20.41;100.00;99874.28;4891489;29;20194;-77
2022/08/19 04:22:06;;;;;;;17.60;16.27;;;;;;;20.41;100.00;99881.31;4894687;29;20197;-78
2022/08/19 04:24:33;;;;;;;18.20;16.80;;;;;;;20.40;100.00;99879.63;4892996;29;20239;-78
2022/08/19 04:27:01;;;;;;;19.20;17.67;;;;;;;20.39;100.00;99876.13;4894807;29;20200;-77
2022/08/19 04:29:27;;;;;;;17.73;16.40;;;;;;;20.38;100.00;99866.56;4911008;29;21945;-77
2022/08/19 04:31:54;;;;;;;18.17;16.87;;;;;;;20.38;100.00;99868.34;4909343;29;20193;-78
2022/08/19 04:34:22;;;;;;;18.10;16.73;;;;;;;20.38;100.00;99868.34;4896643;29;20201;-78
2022/08/19 04:36:50;;;;;;;18.90;17.30;;;;;;;20.38;100.00;99863.09;4901703;29;20280;-77
2022/08/19 04:39:18;;;;;;;17.93;16.60;;;;;;;20.39;100.00;99865.63;4892906;29;20853;-76
2022/08/19 04:44:31;;;;;;;17.03;15.73;;;;;;;20.42;100.00;99880.38;4894275;29;20236;-78
2022/08/19 04:46:56;;;;;;;17.93;16.53;;;;;;;20.44;100.00;99877.66;4909760;29;20181;-77
2022/08/19 04:49:23;;;;;;;17.67;16.37;;;;;;;20.46;100.00;99873.19;4895084;29;20584;-77
2022/08/19 04:51:50;;;;;;;18.33;16.93;;;;;;;20.50;100.00;99878.16;4897609;29;20195;-77
2022/08/19 04:54:22;;;;;;;16.63;15.33;;;;;;;20.53;100.00;99882.38;4896484;29;20213;-77
2022/08/19 04:56:49;;;;;;;17.97;16.60;;;;;;;20.58;100.00;99888.25;4898021;29;20224;-77
2022/08/19 04:59:15;;;;;;;20.10;18.53;;;;;;;20.63;100.00;99901.97;4891976;29;20270;-77
2022/08/19 05:01:42;;;;;;;19.13;17.70;;;;;;;20.66;100.00;99899.16;4893901;29;20276;-76
2022/08/19 05:04:08;;;;;;;21.73;20.03;;;;;;;20.70;100.00;99898.03;4895656;29;20292;-77
2022/08/19 05:06:35;;;;;;;23.37;21.47;;;;;;;20.77;100.00;99900.38;4912041;29;21224;-77
2022/08/19 05:09:05;;;;;;;21.33;19.50;;;;;;;20.79;100.00;99898.50;4913696;29;20212;-77
2022/08/19 05:11:38;;;;;;;20.40;18.80;;;;;;;20.86;100.00;99899.81;4896437;29;20187;-76
2022/08/19 05:14:05;;;;;;;21.20;19.50;;;;;;;20.95;100.00;99901.06;4896003;29;20279;-77
2022/08/19 05:16:30;;;;;;;21.60;19.90;;;;;;;21.01;100.00;99901.56;4894076;29;20236;-76
2022/08/19 05:24:26;;;;;;;20.43;18.73;;;;;;;21.15;100.00;99915.66;4891334;29;20745;-75
2022/08/19 05:26:56;;;;;;;19.00;17.60;;;;;;;21.17;100.00;99914.66;4895358;29;20225;-77
2022/08/19 05:29:23;;;;;;;19.47;17.97;;;;;;;21.19;100.00;99927.72;4898035;29;20199;-78
2022/08/19 05:31:49;;;;;;;19.17;17.67;;;;;;;21.23;100.00;99931.00;4895558;29;20938;-74
2022/08/19 05:34:15;;;;;;;17.93;16.63;;;;;;;21.26;100.00;99938.72;4892288;29;20197;-77
2022/08/19 05:36:43;;;;;;;18.97;17.47;;;;;;;21.32;100.00;99930.47;4910364;29;20220;-78
2022/08/19 05:39:11;;;;;;;18.73;17.23;;;;;;;21.37;100.00;99930.19;4896692;29;20197;-78
2022/08/19 05:41:57;;;;;;;17.93;16.53;;;;;;;21.44;100.00;99936.78;4893299;29;20672;-76
2022/08/19 05:44:32;;;;;;;18.60;17.10;;;;;;;21.50;100.00;99944.31;4902733;29;20213;-77
2022/08/19 05:47:02;;;;;;;19.50;18.00;;;;;;;21.51;100.00;99947.78;4894315;29;20272;-77
2022/08/19 05:49:28;;;;;;;19.20;17.63;;;;;;;21.53;100.00;99949.41;4911521;29;20181;-76
2022/08/19 05:51:55;;;;;;;19.93;18.37;;;;;;;21.56;100.00;99956.25;4895114;29;20285;-78
2022/08/19 05:54:22;;;;;;;19.90;18.30;;;;;;;21.56;100.00;99954.44;4914173;29;20180;-77
2022/08/19 05:56:49;;;;;;;17.90;16.50;;;;;;;21.60;100.00;99960.44;4899368;29;20217;-77
2022/08/19 05:59:17;;;;;;;17.80;16.50;;;;;;;21.62;100.00;99954.13;4895220;29;20688;-77
2022/08/19 06:01:45;;;;;;;18.27;16.87;;;;;;;21.66;100.00;99962.69;4911276;29;20193;-76
2022/08/19 06:04:11;;;;;;;18.27;16.87;;;;;;;21.63;100.00;99960.22;4892761;29;20217;-76
2022/08/19 06:06:36;;;;;;;17.97;16.63;;;;;;;21.60;100.00;99963.91;4909753;29;20213;-78
2022/08/19 06:09:04;;;;;;;17.77;16.47;;;;;;;21.58;100.00;99959.66;4901222;29;20200;-78
2022/08/19 06:11:37;;;;;;;17.07;15.77;;;;;;;21.58;100.00;99960.47;4895515;29;20858;-76
2022/08/19 06:14:08;;;;;;;18.40;16.87;;;;;;;21.59;100.00;99951.66;4909800;29;20191;-78
2022/08/19 06:16:35;;;;;;;17.67;16.37;;;;;;;21.58;100.00;99960.47;4912200;29;20308;-78
2022/08/19 06:19:03;;;;;;;17.67;16.27;;;;;;;21.59;100.00;99961.34;4897580;29;20223;-77
2022/08/19 06:21:29;;;;;;;17.83;16.43;;;;;;;21.60;100.00;99950.75;4906515;29;20617;-78
2022/08/19 06:23:56;;;;;;;17.20;15.83;;;;;;;21.60;100.00;99958.63;4893387;29;20701;-78
2022/08/19 06:26:23;;;;;;;16.20;15.00;;;;;;;21.61;100.00;99962.13;4913401;29;20225;-77
2022/08/19 06:28:50;;;;;;;17.20;15.90;;;;;;;21.61;100.00;99964.78;4899677;29;20697;-77
2022/08/19 06:31:20;;;;;;;17.20;15.80;;;;;;;21.59;100.00;99972.72;4891223;29;20185;-78
2022/08/19 06:33:45;;;;;;;17.33;16.03;;;;;;;21.61;100.00;99976.13;4895318;29;20232;-77
2022/08/19 06:36:26;;;;;;;16.77;15.47;;;;;;;21.59;100.00;99988.50;4892922;29;20248;-77
2022/08/19 06:38:52;;;;;;;17.33;16.07;;;;;;;21.57;100.00;99979.84;4911151;29;20197;-76
2022/08/19 06:41:17;;;;;;;17.60;16.20;;;;;;;21.58;100.00;99983.34;4892185;29;20197;-74
2022/08/19 06:43:43;;;;;;;17.50;16.10;;;;;;;21.62;100.00;99980.47;4909878;29;20241;-76
2022/08/19 06:46:11;;;;;;;17.17;15.77;;;;;;;21.73;100.00;99987.72;4895706;29;20312;-77
2022/08/19 06:48:36;;;;;;;16.57;15.37;;;;;;;21.85;100.00;99977.38;4892728;29;20219;-76
2022/08/19 06:51:03;;;;;;;15.83;14.63;;;;;;;21.97;100.00;99981.03;4892926;29;20272;-77
2022/08/19 06:53:29;;;;;;;17.93;16.53;;;;;;;22.05;100.00;99981.41;4906725;29;20185;-77
2022/08/19 06:55:59;;;;;;;16.37;15.13;;;;;;;22.14;100.00;99983.47;4904609;29;20304;-78
2022/08/19 06:58:25;;;;;;;17.27;15.87;;;;;;;22.20;100.00;99985.72;4910144;29;20256;-78
2022/08/19 07:00:51;;;;;;;16.30;15.10;;;;;;;22.25;100.00;99982.78;4895001;29;20243;-76
2022/08/19 07:03:16;;;;;;;15.93;14.73;;;;;;;22.31;100.00;99979.78;4891721;29;20696;-77
2022/08/19 07:05:42;;;;;;;15.93;14.77;;;;;;;22.46;100.00;99988.53;4915668;29;20208;-76
2022/08/19 07:08:07;;;;;;;17.17;15.87;;;;;;;22.59;100.00;99980.69;4897302;29;20228;-75
2022/08/19 07:10:34;;;;;;;15.23;14.10;;;;;;;22.74;100.00;99980.63;4903892;29;20249;-76
2022/08/19 07:13:00;;;;;;;16.33;15.03;;;;;;;22.91;100.00;99979.56;4911553;29;20203;-74
2022/08/19 07:15:26;;;;;;;15.67;14.47;;;;;;;23.09;100.00;99974.84;4910194;29;20212;-77
2022/08/19 07:17:52;;;;;;;15.60;14.33;;;;;;;23.33;100.00;99985.59;4903404;29;20216;-76
2022/08/19 07:20:17;;;;;;;15.40;14.20;;;;;;;23.56;100.00;99984.03;4899486;29;20203;-75
2022/08/19 07:22:42;;;;;;;15.17;14.07;;;;;;;23.79;100.00;99989.50;4894187;29;20184;-76
2022/08/19 07:25:09;;;;;;;15.70;14.50;;;;;;;23.96;100.00;99987.47;4908493;29;20323;-76
2022/08/19 07:27:35;;;;;;;15.37;14.27;;;;;;;24.07;100.00;99984.13;4895206;29;20301;-77
2022/08/19 07:30:01;;;;;;;14.73;13.63;;;;;;;24.12;100.00;99989.94;4901242;29;20200;-77
2022/08/19 07:32:26;;;;;;;14.77;13.67;;;;;;;24.16;100.00;99980.81;4907731;29;20922;-77
2022/08/19 07:34:52;;;;;;;13.90;12.90;;;;;;;24.22;100.00;99983.03;4908559;29;20220;-78
2022/08/19 07:37:17;;;;;;;14.87;13.77;;;;;;;24.27;100.00;99982.69;4900798;29;20203;-77
2022/08/19 07:39:43;;;;;;;14.10;13.03;;;;;;;24.33;100.00;99983.09;4925060;29;20547;-76
2022/08/19 07:42:10;;;;;;;14.83;13.63;;;;;;;24.38;100.00;99980.13;4899933;29;20200;-76
2022/08/19 07:44:36;;;;;;;13.83;12.83;;;;;;;24.45;100.00;99980.53;4907413;29;20288;-77
2022/08/19 07:47:04;;;;;;;14.53;13.43;;;;;;;24.51;100.00;99988.03;4896267;29;20201;-76
2022/08/19 07:49:30;;;;;;;14.73;13.63;;;;;;;24.63;100.00;99984.50;4898238;29;20189;-77
2022/08/19 07:52:01;;;;;;;14.37;13.33;;;;;;;24.76;100.00;99983.63;4899093;29;20839;-77
2022/08/19 07:54:30;;;;;;;14.67;13.53;;;;;;;24.85;100.00;99980.31;4916003;29;20279;-76
2022/08/19 07:56:56;;;;;;;13.40;12.40;;;;;;;24.92;100.00;99978.03;4896864;29;20197;-77
2022/08/19 07:59:22;;;;;;;13.80;12.80;;;;;;;24.95;100.00;99985.78;4896929;29;20188;-76
2022/08/19 08:01:49;;;;;;;12.80;11.90;;;;;;;24.98;99.83;99984.69;4892352;29;20700;-77
2022/08/19 08:09:45;;;;;;;12.63;11.70;;;;;;;24.95;99.17;99991.88;4895925;29;20212;-77
2022/08/19 08:12:14;;;;;;;12.80;11.87;;;;;;;25.00;98.64;99986.25;4896642;29;20680;-77
2022/08/19 08:14:49;;;;;;;12.97;12.07;;;;;;;25.09;97.55;99984.72;4895673;29;20557;-78
2022/08/19 08:17:17;;;;;;;14.37;13.27;;;;;;;25.27;94.60;99996.59;4895718;29;20204;-76
2022/08/19 08:19:44;;;;;;;14.60;13.50;;;;;;;25.40;93.38;99993.84;4900978;29;20193;-75
2022/08/19 08:23:21;;;;;;;13.97;12.70;;;;;;;25.78;92.38;99985.72;4894269;29;20201;-76
2022/08/19 08:25:01;;;;;;;13.23;12.33;;;;;;;26.32;91.10;99973.56;4898450;29;20228;-77
2022/08/19 08:27:30;;;;;;;13.80;12.60;;;;;;;26.73;89.55;99976.47;4892429;29;20200;-77
2022/08/19 08:29:57;;;;;;;12.00;11.20;;;;;;;27.04;88.40;99987.25;4893334;29;20204;-76
2022/08/19 08:32:22;;;;;;;11.57;10.80;;;;;;;27.35;87.34;99987.31;4911758;29;20185;-76
2022/08/19 08:34:48;;;;;;;11.13;10.33;;;;;;;27.53;86.04;99991.06;4896785;29;20830;-77
2022/08/19 08:37:14;;;;;;;12.47;11.57;;;;;;;27.67;84.93;99986.41;4905983;29;20196;-76
2022/08/19 08:39:39;;;;;;;11.70;10.90;;;;;;;27.86;84.66;99984.81;4897633;29;20190;-77
2022/08/19 08:42:26;;;;;;;12.30;11.40;;;;;;;27.93;82.83;99984.13;4894226;29;20193;-77
2022/08/19 08:45:01;;;;;;;11.50;10.60;;;;;;;28.06;82.45;99986.56;4893577;29;20208;-77
2022/08/19 08:47:32;;;;;;;11.50;10.60;;;;;;;28.14;82.24;99986.75;4892006;29;20197;-76
2022/08/19 08:50:22;;;;;;;13.17;12.07;;;;;;;28.16;79.63;99988.44;4897714;29;20185;-77
2022/08/19 08:52:52;;;;;;;11.37;10.53;;;;;;;28.07;78.35;99979.41;4895333;29;20634;-76
2022/08/19 08:55:21;;;;;;;10.83;10.03;;;;;;;28.11;79.40;99983.53;4894597;29;20669;-77
2022/08/19 08:57:47;;;;;;;11.33;10.43;;;;;;;28.25;79.15;99982.31;4894990;29;20753;-77
2022/08/19 09:00:20;;;;;;;12.43;11.43;;;;;;;28.11;77.64;99989.72;4895651;29;20276;-77
2022/08/19 09:02:47;;;;;;;11.90;11.00;;;;;;;27.84;77.23;99993.75;4895489;29;20201;-76
2022/08/19 09:05:12;;;;;;;12.27;11.37;;;;;;;27.54;77.62;99994.59;4909040;29;20311;-77
2022/08/19 09:07:56;;;;;;;11.67;10.77;;;;;;;27.48;77.29;99988.00;4906616;29;20288;-77
2022/08/19 09:10:48;;;;;;;11.40;10.50;;;;;;;27.39;77.55;99991.38;4908061;29;20335;-76
2022/08/19 09:13:57;;;;;;;9.90;9.20;;;;;;;27.36;78.84;99989.84;4913533;29;20751;-78
2022/08/19 09:16:26;;;;;;;11.23;10.43;;;;;;;27.51;78.78;99985.06;4899054;29;20300;-77
2022/08/19 09:18:54;;;;;;;11.27;10.27;;;;;;;27.58;78.56;99988.06;4894532;29;20189;-77
2022/08/19 09:21:24;;;;;;;10.27;9.53;;;;;;;27.76;78.22;99998.03;4909572;29;20587;-75
2022/08/19 09:23:50;;;;;;;11.27;10.27;;;;;;;27.91;76.89;99996.72;4900465;29;20248;-75
2022/08/19 09:26:19;;;;;;;10.17;9.17;;;;;;;27.90;76.32;99991.56;4895732;29;20245;-75
2022/08/19 09:28:47;;;;;;;9.70;8.80;;;;;;;28.21;76.19;99984.41;4901039;29;20185;-78
2022/08/19 09:31:24;;;;;;;9.20;8.50;;;;;;;28.45;75.22;99975.22;4899785;29;20197;-75
2022/08/19 09:33:51;;;;;;;8.20;7.60;;;;;;;28.35;75.79;99985.03;4913412;29;20193;-74
2022/08/19 09:36:22;;;;;;;9.50;8.70;;;;;;;28.05;74.03;99982.22;4903170;29;20304;-75
2022/08/19 09:38:48;;;;;;;9.40;8.60;;;;;;;27.71;74.99;99987.00;4899575;29;20681;-75
2022/08/19 09:41:17;;;;;;;7.80;7.20;;;;;;;27.33;75.20;99979.47;4898405;29;20201;-76
2022/08/19 09:43:45;;;;;;;7.77;7.17;;;;;;;26.89;76.65;99976.06;4911647;29;20261;-76
2022/08/19 09:46:11;;;;;;;7.80;7.20;;;;;;;26.69;77.22;99977.69;4897782;29;20209;-76
2022/08/19 09:48:38;;;;;;;7.60;6.90;;;;;;;26.77;77.31;99975.25;4899545;29;20272;-75
2022/08/19 09:51:08;;;;;;;8.30;7.70;;;;;;;26.89;75.95;99981.38;4896180;29;20737;-74
2022/08/19 09:53:35;;;;;;;8.23;7.40;;;;;;;26.88;75.84;99983.19;4895526;29;20204;-78
2022/08/19 09:56:01;;;;;;;8.60;7.90;;;;;;;26.90;76.51;99989.22;4894457;29;20217;-74
2022/08/19 09:58:27;;;;;;;7.37;6.77;;;;;;;27.05;76.39;99992.41;4911943;29;20197;-76
2022/08/19 10:00:54;;;;;;;7.33;6.83;;;;;;;27.15;76.58;99987.19;4895658;29;20216;-76
2022/08/19 10:03:19;;;;;;;7.63;7.03;;;;;;;27.27;75.53;99981.78;4898272;29;20209;-78
2022/08/19 10:05:48;;;;;;;8.70;8.00;;;;;;;27.26;74.67;99980.13;4896081;29;20223;-77
2022/08/19 10:08:14;;;;;;;8.37;7.67;;;;;;;27.13;74.54;99988.28;4894410;29;20197;-77
2022/08/19 10:10:43;;;;;;;10.27;7.10;;;;;;;27.38;74.26;99981.72;4895373;29;20197;-74
2022/08/19 10:13:09;;;;;;;7.30;6.80;;;;;;;27.57;74.26;99985.50;4900604;29;20837;-76
2022/08/19 10:15:35;;;;;;;7.57;7.07;;;;;;;27.57;74.46;99985.50;4895814;29;20303;-76
2022/08/19 10:18:00;;;;;;;7.30;6.70;;;;;;;27.56;72.86;99984.69;4895650;29;20193;-74
2022/08/19 10:20:26;;;;;;;6.67;6.20;;;;;;;27.42;73.34;99985.81;4895459;29;20195;-75
2022/08/19 10:22:51;;;;;;;7.20;6.70;;;;;;;27.53;72.35;99985.75;4910304;29;20690;-74
2022/08/19 10:25:17;;;;;;;6.93;6.43;;;;;;;27.58;72.15;99987.19;4894037;29;20577;-73
2022/08/19 10:27:42;;;;;;;7.00;6.40;;;;;;;27.95;72.34;99982.19;4893606;29;20196;-76
2022/08/19 10:30:09;;;;;;;7.27;6.57;;;;;;;28.23;72.02;99982.44;4905461;29;20252;-74
2022/08/19 10:32:34;;;;;;;7.13;6.63;;;;;;;28.39;71.44;99975.75;4894267;29;20292;-73
2022/08/19 10:35:00;;;;;;;7.43;6.73;;;;;;;28.70;71.67;99976.50;4894236;29;20308;-73
2022/08/19 10:37:25;;;;;;;7.20;6.70;;;;;;;29.03;70.37;99979.78;4891506;29;20762;-75
2022/08/19 10:39:51;;;;;;;7.83;7.23;;;;;;;29.30;69.43;99977.34;4892637;29;20201;-75
2022/08/19 10:42:18;;;;;;;7.90;7.07;;;;;;;29.28;68.90;99965.97;4901387;29;20196;-74
2022/08/19 10:44:43;;;;;;;6.93;6.40;;;;;;;29.09;68.89;99974.84;4893714;29;20252;-76
2022/08/19 10:47:10;;;;;;;7.33;6.73;;;;;;;28.97;69.83;99976.81;4895470;29;20209;-74
2022/08/19 10:52:33;;;;;;;6.80;6.30;;;;;;;28.98;70.05;99971.34;4906656;29;20200;-75
2022/08/19 10:52:33;;;;;;;8.10;7.50;;;;;;;29.22;69.76;99955.91;4893685;29;20255;-75
2022/08/19 10:57:43;;;;;;;7.77;7.00;;;;;;;29.38;69.10;99950.00;4892475;29;20263;-75
2022/08/19 11:00:09;;;;;;;7.70;6.80;;;;;;;29.63;67.98;99954.72;4892677;29;20621;-74
2022/08/19 11:02:35;;;;;;;8.10;7.43;;;;;;;29.64;67.82;99955.53;4892424;29;20801;-74
2022/08/19 11:05:00;;;;;;;7.30;6.80;;;;;;;29.48;67.76;99942.84;4891910;29;20311;-74
2022/08/19 11:07:26;;;;;;;8.10;7.50;;;;;;;29.30;68.48;99935.56;4912950;29;20188;-73
2022/08/19 11:09:51;;;;;;;7.57;6.87;;;;;;;29.55;68.92;99946.59;4899783;29;20204;-74
2022/08/19 11:12:17;;;;;;;6.67;6.23;;;;;;;29.64;68.64;99942.19;4902476;29;20464;-74
2022/08/19 11:14:42;;;;;;;7.60;7.00;;;;;;;29.66;68.74;99951.72;4902506;29;20185;-75
2022/08/19 11:17:07;;;;;;;6.87;6.27;;;;;;;29.56;68.64;99940.25;4916327;29;20284;-74
2022/08/19 11:19:33;;;;;;;8.83;8.23;;;;;;;29.32;67.95;99933.59;4915689;29;20197;-73
2022/08/19 11:22:03;;;;;;;8.53;7.03;;;;;;;29.72;67.72;99944.13;4898554;29;20569;-75
2022/08/19 11:24:30;;;;;;;7.80;7.10;;;;;;;30.03;66.84;99935.88;4913234;28;21312;-76
2022/08/19 11:27:04;;;;;;;7.33;6.83;;;;;;;30.19;66.46;99920.06;4899548;29;20209;-75
2022/08/19 11:29:30;;;;;;;7.77;7.27;;;;;;;30.03;66.78;99917.19;4897843;29;20216;-74
2022/08/19 11:31:55;;;;;;;7.30;6.60;;;;;;;29.85;67.52;99915.28;4897756;29;20272;-75
2022/08/19 11:34:24;;;;;;;7.50;6.97;;;;;;;29.48;67.79;99917.00;4908478;29;20201;-75
2022/08/19 11:36:50;;;;;;;7.90;7.30;;;;;;;29.16;67.95;99926.16;4894675;29;20228;-74